WEATHER DATA

TODAY
Time Temp. Dewp. Hum. Wind dir Wind speed Wind gust Bar. 1h Prec. 24h Prec.
00:03 12.3 9.9 85 18 0.6 1.9 1019.2 0.0000 0.0000
00:13 12.2 9.9 86 18 0.6 1.9 1019.3 0.0000 0.0000
00:24 12.1 9.8 86 18 0.6 1.9 1019.2 0.0000 0.0000
00:34 12 9.7 86 18 0.6 1.9 1019.3 0.0000 0.0000
00:44 11.9 9.6 86 18 0.6 1.9 1019.3 0.0000 0.0000
00:54 11.8 9.5 86 18 0.6 1.9 1019.3 0.0000 0.0000
01:05 11.7 9.4 86 18 0.6 1.9 1019.3 0.0000 0.0000
01:14 11.6 9.3 86 18 0.6 1.9 1019.2 0.0000 0.0000
01:24 11.5 9.2 86 18 0.6 1.9 1019.1 0.0000 0.0000
01:35 11.3 9.2 87 18 0.6 1.9 1019.2 0.0000 0.0000
01:45 11.2 9.1 87 18 0.6 1.9 1019.3 0.0000 0.0000
01:55 11.1 9 87 18 0.6 1.9 1019.2 0.0000 0.0000
02:05 11 8.9 87 18 0.6 1.9 1019.3 0.0000 0.0000
02:16 10.9 8.8 87 18 0.6 1.9 1019.4 0.0000 0.0000
02:25 10.8 8.9 88 18 0.6 1.9 1019.3 0.0000 0.0000
02:35 10.7 8.8 88 18 0.6 1.9 1019.4 0.0000 0.0000
02:45 10.6 8.7 88 18 0.6 1.9 1019.2 0.0000 0.0000
02:56 10.5 8.6 88 18 0.6 1.9 1019.2 0.0000 0.0000
03:06 10.5 8.6 88 18 0.6 1.9 1019.3 0.0000 0.0000
03:16 10.4 8.5 88 18 0.6 1.9 1019.3 0.0000 0.0000
03:26 10.3 8.6 89 18 0.6 1.9 1019.2 0.0000 0.0000
03:36 10.3 8.6 89 18 0.6 1.9 1019.2 0.0000 0.0000
03:46 10.2 8.5 89 18 0.6 1.9 1019.1 0.0000 0.0000
03:56 10.1 8.4 89 18 0.6 1.9 1019.1 0.0000 0.0000
04:07 10 8.3 89 18 0.6 1.9 1019 0.0000 0.0000
04:17 9.9 8.2 89 18 0.6 1.9 1019 0.0000 0.0000
04:27 9.8 8.1 89 18 0.6 1.9 1019.2 0.0000 0.0000
04:36 9.7 8 89 18 0.6 1.9 1019.1 0.0000 0.0000
04:47 9.7 8 89 18 0.6 1.9 1019 0.0000 0.0000
04:57 9.6 7.9 89 18 0.6 1.9 1019.1 0.0000 0.0000
05:07 9.5 7.8 89 18 0.6 1.9 1019.1 0.0000 0.0000
05:18 9.5 7.8 89 18 0.6 1.9 1019.1 0.0000 0.0000
05:28 9.5 7.8 89 18 0.6 1.9 1019.3 0.0000 0.0000
05:38 9.4 7.7 89 18 0.6 1.9 1019.2 0.0000 0.0000
05:47 9.4 7.7 89 18 0.6 1.9 1019.3 0.0000 0.0000
05:58 9.3 7.6 89 18 0.6 1.9 1019.4 0.0000 0.0000
06:08 9.2 7.6 90 18 0.6 1.9 1019.3 0.0000 0.0000
06:18 9.1 7.5 90 18 0.6 1.9 1019.4 0.0000 0.0000
06:28 9.1 7.5 90 18 0.6 1.9 1019.3 0.0000 0.0000
06:39 9.1 7.5 90 18 0.6 1.9 1019.4 0.0000 0.0000
06:49 9 7.4 90 18 0.6 1.9 1019.5 0.0000 0.0000
06:58 8.9 7.4 90 18 0.6 1.9 1019.5 0.0000 0.0000
07:09 8.9 7.4 90 18 0.6 1.9 1019.6 0.0000 0.0000
07:19 8.9 7.4 90 18 0.6 1.9 1019.6 0.0000 0.0000
07:29 8.8 7.3 90 18 0.6 1.9 1019.8 0.0000 0.0000
07:39 8.7 7.2 90 18 0.6 1.9 1020 0.0000 0.0000
07:50 8.6 7.1 90 18 0.6 1.9 1020 0.0000 0.0000
07:54 8.6 7.1 90 18 0.6 1.9 1020 0.0000 0.0000
08:03 8.5 7 90 18 0.6 1.9 1020.2 0.0000 0.0000
08:14 8.5 7 90 18 0.6 1.9 1020.3 0.0000 0.0000
08:24 8.4 6.9 90 18 0.6 1.9 1020.5 0.0000 0.0000
08:34 8.3 6.8 90 18 0.6 1.9 1020.5 0.0000 0.0000
08:44 8.4 6.9 90 18 0.6 1.9 1020.6 0.0000 0.0000
08:55 8.4 7 91 18 0.6 1.9 1020.8 0.0000 0.0000
09:05 8.6 7.2 91 18 0.6 1.9 1020.7 0.0000 0.0000
09:14 8.7 7.3 91 18 0.6 1.9 1020.9 0.0000 0.0000
09:24 9 7.6 91 18 0.6 1.9 1020.9 0.0000 0.0000
09:35 9.3 8.1 92 18 0.6 1.9 1021 0.0000 0.0000
09:45 9.7 8.5 92 18 0.6 1.9 1021 0.0000 0.0000
09:55 10.3 9.2 93 18 0.6 1.9 1021.2 0.0000 0.0000
10:05 10.7 9.6 93 18 0.6 1.9 1021 0.0000 0.0000
10:16 11.1 9.9 92 18 0.6 1.9 1021.1 0.0000 0.0000
10:25 11.5 10.2 92 18 0.6 1.9 1021.1 0.0000 0.0000
10:35 12 10.7 92 18 0.6 1.9 1021.1 0.0000 0.0000
10:46 12.5 11.2 92 18 0.6 1.9 1021.1 0.0000 0.0000
10:56 13 11.6 91 18 0.6 1.9 1021.4 0.0000 0.0000
11:06 13.5 11.9 90 18 0.6 1.9 1021.1 0.0000 0.0000
11:16 13.9 12.1 89 18 0.6 1.9 1021.1 0.0000 0.0000
11:27 14.3 12.3 88 18 0.6 1.9 1021.3 0.0000 0.0000
11:36 14.7 12.4 86 18 0.6 1.9 1021.1 0.0000 0.0000
11:46 15 12.5 85 18 0.6 1.9 1020.8 0.0000 0.0000
11:57 15.4 12.7 84 18 0.6 1.9 1021 0.0000 0.0000
12:07 15.8 12.9 83 18 0.6 1.9 1021.1 0.0000 0.0000
12:17 16.1 13 82 18 0.6 1.9 1021.1 0.0000 0.0000
12:27 16.5 13 80 18 0.6 1.9 1021 0.0000 0.0000
12:38 16.9 13.2 79 18 0.6 1.9 1020.9 0.0000 0.0000
12:47 17.3 13.4 78 18 0.6 1.9 1020.8 0.0000 0.0000
12:57 17.5 13.4 77 18 0.6 1.9 1020.6 0.0000 0.0000
13:07 17.7 13.4 76 18 0.6 1.9 1020.7 0.0000 0.0000
13:18 17.9 13.6 76 18 0.6 1.9 1020.6 0.0000 0.0000
13:28 18.2 13.7 75 18 0.6 1.9 1020.7 0.0000 0.0000
13:38 18.4 13.9 75 18 0.6 1.9 1020.4 0.0000 0.0000
13:48 18.7 14 74 18 0.6 1.9 1020.4 0.0000 0.0000
13:58 19 14.3 74 18 0.6 1.9 1020.3 0.0000 0.0000
14:08 19.4 14.2 72 18 0.6 1.9 1020.2 0.0000 0.0000
14:18 19.8 14.4 71 18 0.6 1.9 1020.3 0.0000 0.0000
14:29 20 14.4 70 18 0.6 1.9 1020.4 0.0000 0.0000
14:39 20.2 14.3 69 18 0.6 1.9 1020.3 0.0000 0.0000
14:49 20.3 14.4 69 18 0.6 1.9 1020.1 0.0000 0.0000
14:58 20.5 14.4 68 18 0.6 1.9 1020.3 0.0000 0.0000
15:09 20.6 14.5 68 18 0.6 1.9 1020.3 0.0000 0.0000
15:19 20.6 14.3 67 18 0.6 1.9 1020.3 0.0000 0.0000
15:29 20.5 14.4 68 18 0.6 1.9 1020.2 0.0000 0.0000
15:40 20.7 14.4 67 18 0.6 1.9 1020.5 0.0000 0.0000
15:50 20.6 14.3 67 18 0.6 1.9 1020.3 0.0000 0.0000
16:09 20.2 14.1 68 18 0.6 1.9 1020.2 0.0000 0.0000
16:20 20 13.9 68 18 0.6 1.9 1020.3 0.0000 0.0000
16:30 19.8 14 69 18 0.6 1.9 1020.4 0.0000 0.0000
16:40 19.6 13.8 69 18 0.6 1.9 1020.3 0.0000 0.0000
17:00 19.2 13.6 70 18 0.6 1.9 1020.4 0.0000 0.0000
17:10 19 13.4 70 18 0.6 1.9 1020.3 0.0000 0.0000
17:20 18.9 13.3 70 18 0.6 1.9 1020.5 0.0000 0.0000

DAY STATISTIC

2018-10-18
TEMPERATURE
AVERAGE
13.0
HIGH
20.7
15:40
LOW
8.3
08:34
PRESSURE
AVERAGE
1020.0
HIGH
1021.4
10:56
LOW
1019.0
04:07
DEWPOINT
AVERAGE
10.2
HIGH
14.5
15:09
LOW
6.8
08:34
HUMIDITY
AVERAGE
84
HIGH
93
09:55
LOW
67
15:19
WIND SPEED
AVERAGE
0.6
HIGH
0.6
00:03
WIND GUST
AVERAGE
1.9
HIGH
1.9
00:03
WIND DIRECTION
PREVAILING
N
100%
N
100.0
NE
0.0
E
0.0
SE
0.0
S
0.0
SW
0.0
W
0.0
NW
0.0
PRECIPITATION
RAIN HOUR
0.0
RAIN DAY
0.0
TEMPERATURE (°C)
LOW
8.3
HIGH
20.7
AVERAGE
13.0
PRESSURE (hpa)
LOW
1019.0
HIGH
1021.4
AVERAGE
1020.0
DEVICE